PWSweather.com
Personal Weather Stations
Station Observations
CW5171
Mountain Shadows, Colorado Springs, CO 80919

Mountain ShadowsColorado Springs, CO 80919

Lat: 38.928, Lon: -104.868

Elevation: 6650

Station Type: LaCrosse WS-2308

High Low Average
Temperature 66.0°F18.9°C 36.7°F2.6°C 47.4°F8.6°C
Dew Point 36.8°F2.7°C 28.8°F-1.8°C 32.6°F0.3°C
Winds 15.2 mph 24.5 kmh Calm Calm 6.0 mph SE9.7 kmh SE
Wind Gusts 25.1 mph40.4 kmh 1.3 mph2.1 kmh 14.0 mph22.5 kmh
Humidity 82% 32% 60%
Pressure 30.11 in1019.6 mb 29.99 in1015.6 mb -
Precipitation 0.00 in0.0 mm - -
Hour Temp Dew Point Humidity Winds Wind Gusts Pressure Precip Precip Rate Daily Precip Total
12:01 AM 38.5°F3.6°C 31.4°F-0.3°C 76% Calm Calm 3.4 mph5.5 kmh 30.00 in1015.9 mb 0.00 in0.0 mm 0.00 in/hr0.0 mm/hr 0.00 in0.0 mm
12:12 AM 38.4°F3.6°C 31.7°F-0.2°C 76% Calm Calm 4.0 mph6.4 kmh 30.00 in1015.9 mb 0.00 in0.0 mm 0.00 in/hr0.0 mm/hr 0.00 in0.0 mm
12:22 AM 38.3°F3.5°C 31.9°F-0.1°C 77% 3.1 mph NW5.0 kmh NW 5.6 mph9.0 kmh 30.00 in1015.9 mb 0.00 in0.0 mm 0.00 in/hr0.0 mm/hr 0.00 in0.0 mm
12:32 AM 38.4°F3.6°C 32.0°F0.0°C 77% Calm Calm 1.3 mph2.1 kmh 30.00 in1015.9 mb 0.00 in0.0 mm 0.00 in/hr0.0 mm/hr 0.00 in0.0 mm
12:42 AM 38.8°F3.8°C 32.3°F0.2°C 77% 2.9 mph NNW4.7 kmh NNW 7.2 mph11.6 kmh 30.00 in1015.9 mb 0.00 in0.0 mm 0.00 in/hr0.0 mm/hr 0.00 in0.0 mm
12:52 AM 40.6°F4.8°C 33.2°F0.7°C 75% 4.8 mph NNW7.7 kmh NNW 8.9 mph14.3 kmh 30.00 in1015.9 mb 0.00 in0.0 mm 0.00 in/hr0.0 mm/hr 0.00 in0.0 mm
01:02 AM 42.8°F6.0°C 33.6°F0.9°C 70% 3.4 mph NNW5.5 kmh NNW 7.8 mph12.6 kmh 29.99 in1015.6 mb 0.00 in0.0 mm 0.00 in/hr0.0 mm/hr 0.00 in0.0 mm
01:13 AM 44.0°F6.7°C 33.7°F0.9°C 67% 4.9 mph NW7.9 kmh NW 7.4 mph11.9 kmh 30.00 in1015.9 mb 0.00 in0.0 mm 0.00 in/hr0.0 mm/hr 0.00 in0.0 mm
01:23 AM 44.2°F6.8°C 32.4°F0.2°C 63% 5.2 mph NE8.4 kmh NE 16.3 mph26.2 kmh 30.01 in1016.3 mb 0.00 in0.0 mm 0.00 in/hr0.0 mm/hr 0.00 in0.0 mm
01:31 AM 44.2°F6.8°C 31.5°F-0.3°C 61% 10.0 mph N16.1 kmh N 15.7 mph25.3 kmh 30.01 in1016.3 mb 0.00 in0.0 mm 0.00 in/hr0.0 mm/hr 0.00 in0.0 mm
01:42 AM 44.6°F7.0°C 32.0°F0.0°C 61% 10.0 mph N16.1 kmh N 25.1 mph40.4 kmh 30.02 in1016.6 mb 0.00 in0.0 mm 0.00 in/hr0.0 mm/hr 0.00 in0.0 mm
01:52 AM 44.2°F6.8°C 32.4°F0.2°C 63% 12.3 mph N19.8 kmh N 19.7 mph31.7 kmh 30.02 in1016.6 mb 0.00 in0.0 mm 0.00 in/hr0.0 mm/hr 0.00 in0.0 mm
02:02 AM 43.6°F6.4°C 32.6°F0.3°C 65% 10.9 mph N17.5 kmh N 18.3 mph29.5 kmh 30.02 in1016.6 mb 0.00 in0.0 mm 0.00 in/hr0.0 mm/hr 0.00 in0.0 mm
02:12 AM 43.1°F6.2°C 32.9°F0.5°C 67% 10.5 mph N16.9 kmh N 20.4 mph32.8 kmh 30.02 in1016.6 mb 0.00 in0.0 mm 0.00 in/hr0.0 mm/hr 0.00 in0.0 mm
02:22 AM 42.5°F5.8°C 32.7°F0.4°C 68% 7.4 mph NNE11.9 kmh NNE 18.1 mph29.1 kmh 30.02 in1016.6 mb 0.00 in0.0 mm 0.00 in/hr0.0 mm/hr 0.00 in0.0 mm
02:32 AM 41.8°F5.4°C 32.7°F0.4°C 70% 8.0 mph NNE12.9 kmh NNE 20.1 mph32.3 kmh 30.02 in1016.6 mb 0.00 in0.0 mm 0.00 in/hr0.0 mm/hr 0.00 in0.0 mm
02:42 AM 41.4°F5.2°C 32.7°F0.4°C 71% 9.7 mph NNE15.6 kmh NNE 19.0 mph30.6 kmh 30.02 in1016.6 mb 0.00 in0.0 mm 0.00 in/hr0.0 mm/hr 0.00 in0.0 mm
02:52 AM 40.8°F4.9°C 32.8°F0.4°C 73% 5.1 mph N8.2 kmh N 16.1 mph25.9 kmh 30.02 in1016.6 mb 0.00 in0.0 mm 0.00 in/hr0.0 mm/hr 0.00 in0.0 mm
03:02 AM 40.3°F4.6°C 32.6°F0.3°C 74% 9.3 mph NNE15.0 kmh NNE 18.3 mph29.5 kmh 30.02 in1016.6 mb 0.00 in0.0 mm 0.00 in/hr0.0 mm/hr 0.00 in0.0 mm
03:13 AM 40.1°F4.5°C 32.7°F0.4°C 75% 7.8 mph NE12.6 kmh NE 18.1 mph29.1 kmh 30.01 in1016.3 mb 0.00 in0.0 mm 0.00 in/hr0.0 mm/hr 0.00 in0.0 mm
03:23 AM 39.5°F4.2°C 32.4°F0.2°C 76% 10.9 mph N17.5 kmh N 20.1 mph32.3 kmh 30.02 in1016.6 mb 0.00 in0.0 mm 0.00 in/hr0.0 mm/hr 0.00 in0.0 mm
03:33 AM 39.3°F4.1°C 32.5°F0.3°C 76% 6.6 mph NNE10.6 kmh NNE 18.1 mph29.1 kmh 30.02 in1016.6 mb 0.00 in0.0 mm 0.00 in/hr0.0 mm/hr 0.00 in0.0 mm
03:43 AM 38.8°F3.8°C 32.4°F0.2°C 77% 9.2 mph NNE14.8 kmh NNE 15.9 mph25.6 kmh 30.02 in1016.6 mb 0.00 in0.0 mm 0.00 in/hr0.0 mm/hr 0.00 in0.0 mm
03:53 AM 38.8°F3.8°C 32.4°F0.2°C 77% 8.6 mph NNE13.8 kmh NNE 20.1 mph32.3 kmh 30.02 in1016.6 mb 0.00 in0.0 mm 0.00 in/hr0.0 mm/hr 0.00 in0.0 mm
04:03 AM 38.5°F3.6°C 32.4°F0.2°C 78% 11.2 mph NNE18.0 kmh NNE 19.9 mph32.0 kmh 30.02 in1016.6 mb 0.00 in0.0 mm 0.00 in/hr0.0 mm/hr 0.00 in0.0 mm
04:14 AM 38.5°F3.6°C 32.7°F0.4°C 79% 9.4 mph N15.1 kmh N 18.6 mph29.9 kmh 30.03 in1016.9 mb 0.00 in0.0 mm 0.00 in/hr0.0 mm/hr 0.00 in0.0 mm
04:24 AM 38.5°F3.6°C 33.0°F0.6°C 80% 6.8 mph NE10.9 kmh NE 17.4 mph28.0 kmh 30.02 in1016.6 mb 0.00 in0.0 mm 0.00 in/hr0.0 mm/hr 0.00 in0.0 mm
04:34 AM 38.1°F3.4°C 32.9°F0.5°C 81% 6.0 mph NE9.7 kmh NE 16.3 mph26.2 kmh 30.03 in1016.9 mb 0.00 in0.0 mm 0.00 in/hr0.0 mm/hr 0.00 in0.0 mm
04:44 AM 37.9°F3.3°C 32.7°F0.4°C 81% 9.5 mph NE15.3 kmh NE 19.7 mph31.7 kmh 30.02 in1016.6 mb 0.00 in0.0 mm 0.00 in/hr0.0 mm/hr 0.00 in0.0 mm
04:54 AM 37.8°F3.2°C 32.9°F0.5°C 82% 9.6 mph NE15.4 kmh NE 19.9 mph32.0 kmh 30.03 in1016.9 mb 0.00 in0.0 mm 0.00 in/hr0.0 mm/hr 0.00 in0.0 mm
05:04 AM 37.6°F3.1°C 32.7°F0.4°C 82% 8.6 mph NE13.8 kmh NE 17.4 mph28.0 kmh 30.03 in1016.9 mb 0.00 in0.0 mm 0.00 in/hr0.0 mm/hr 0.00 in0.0 mm
05:14 AM 37.6°F3.1°C 32.7°F0.4°C 82% 7.1 mph NE11.4 kmh NE 18.8 mph30.3 kmh 30.03 in1016.9 mb 0.00 in0.0 mm 0.00 in/hr0.0 mm/hr 0.00 in0.0 mm
05:24 AM 37.2°F2.9°C 32.3°F0.2°C 82% 7.5 mph NE12.1 kmh NE 21.7 mph34.9 kmh 30.03 in1016.9 mb 0.00 in0.0 mm 0.00 in/hr0.0 mm/hr 0.00 in0.0 mm
05:34 AM 37.2°F2.9°C 32.3°F0.2°C 82% 4.3 mph NNE6.9 kmh NNE 11.9 mph19.2 kmh 30.04 in1017.3 mb 0.00 in0.0 mm 0.00 in/hr0.0 mm/hr 0.00 in0.0 mm
05:44 AM 37.0°F2.8°C 32.1°F0.1°C 82% 6.2 mph NE10.0 kmh NE 13.2 mph21.2 kmh 30.03 in1016.9 mb 0.00 in0.0 mm 0.00 in/hr0.0 mm/hr 0.00 in0.0 mm
05:54 AM 36.7°F2.6°C 31.8°F-0.1°C 82% 4.4 mph NE7.1 kmh NE 9.6 mph15.4 kmh 30.04 in1017.3 mb 0.00 in0.0 mm 0.00 in/hr0.0 mm/hr 0.00 in0.0 mm
06:05 AM 36.9°F2.7°C 32.0°F0.0°C 82% 2.3 mph NE3.7 kmh NE 4.9 mph7.9 kmh 30.04 in1017.3 mb 0.00 in0.0 mm 0.00 in/hr0.0 mm/hr 0.00 in0.0 mm
06:15 AM 37.0°F2.8°C 32.1°F0.1°C 82% Calm Calm 3.1 mph5.0 kmh 30.05 in1017.6 mb 0.00 in0.0 mm 0.00 in/hr0.0 mm/hr 0.00 in0.0 mm
06:24 AM 37.6°F3.1°C 32.7°F0.4°C 82% 2.2 mph NE3.5 kmh NE 4.7 mph7.6 kmh 30.05 in1017.6 mb 0.00 in0.0 mm 0.00 in/hr0.0 mm/hr 0.00 in0.0 mm
06:34 AM 37.9°F3.3°C 33.0°F0.6°C 82% 4.1 mph NE6.6 kmh NE 8.9 mph14.3 kmh 30.05 in1017.6 mb 0.00 in0.0 mm 0.00 in/hr0.0 mm/hr 0.00 in0.0 mm
06:44 AM 38.3°F3.5°C 33.4°F0.8°C 82% 2.8 mph NE4.5 kmh NE 5.6 mph9.0 kmh 30.05 in1017.6 mb 0.00 in0.0 mm 0.00 in/hr0.0 mm/hr 0.00 in0.0 mm
06:54 AM 38.8°F3.8°C 33.6°F0.9°C 81% 6.2 mph NNE10.0 kmh NNE 8.3 mph13.4 kmh 30.05 in1017.6 mb 0.00 in0.0 mm 0.00 in/hr0.0 mm/hr 0.00 in0.0 mm
07:05 AM 39.0°F3.9°C 33.5°F0.8°C 80% 3.8 mph NE6.1 kmh NE 7.4 mph11.9 kmh 30.06 in1017.9 mb 0.00 in0.0 mm 0.00 in/hr0.0 mm/hr 0.00 in0.0 mm
07:15 AM 39.6°F4.2°C 34.1°F1.2°C 80% 3.3 mph NE5.3 kmh NE 6.9 mph11.1 kmh 30.06 in1017.9 mb 0.00 in0.0 mm 0.00 in/hr0.0 mm/hr 0.00 in0.0 mm
07:25 AM 39.9°F4.4°C 34.1°F1.2°C 79% 2.9 mph NE4.7 kmh NE 8.7 mph14.0 kmh 30.06 in1017.9 mb 0.00 in0.0 mm 0.00 in/hr0.0 mm/hr 0.00 in0.0 mm
07:35 AM 40.3°F4.6°C 34.1°F1.2°C 78% Calm Calm 3.8 mph6.1 kmh 30.06 in1017.9 mb 0.00 in0.0 mm 0.00 in/hr0.0 mm/hr 0.00 in0.0 mm
07:45 AM 40.6°F4.8°C 33.8°F1.0°C 76% 2.0 mph S3.2 kmh S 6.7 mph10.8 kmh 30.07 in1018.3 mb 0.00 in0.0 mm 0.00 in/hr0.0 mm/hr 0.00 in0.0 mm
07:55 AM 41.2°F5.1°C 33.8°F1.0°C 75% 3.3 mph SSE5.3 kmh SSE 6.5 mph10.5 kmh 30.06 in1017.9 mb 0.00 in0.0 mm 0.00 in/hr0.0 mm/hr 0.00 in0.0 mm
08:05 AM 41.5°F5.3°C 33.7°F0.9°C 74% 2.9 mph S4.7 kmh S 7.6 mph12.2 kmh 30.06 in1017.9 mb 0.00 in0.0 mm 0.00 in/hr0.0 mm/hr 0.00 in0.0 mm
08:15 AM 42.3°F5.7°C 34.2°F1.2°C 73% 5.4 mph S8.7 kmh S 8.9 mph14.3 kmh 30.07 in1018.3 mb 0.00 in0.0 mm 0.00 in/hr0.0 mm/hr 0.00 in0.0 mm
08:26 AM 42.6°F5.9°C 34.1°F1.2°C 72% 1.6 mph S2.6 kmh S 11.6 mph18.7 kmh 30.08 in1018.6 mb 0.00 in0.0 mm 0.00 in/hr0.0 mm/hr 0.00 in0.0 mm
08:36 AM 43.3°F6.3°C 34.1°F1.2°C 70% 8.1 mph S13.0 kmh S 11.2 mph18.0 kmh 30.08 in1018.6 mb 0.00 in0.0 mm 0.00 in/hr0.0 mm/hr 0.00 in0.0 mm
08:46 AM 43.7°F6.5°C 34.1°F1.2°C 69% 2.9 mph S4.7 kmh S 11.4 mph18.3 kmh 30.09 in1019.0 mb 0.00 in0.0 mm 0.00 in/hr0.0 mm/hr 0.00 in0.0 mm
08:56 AM 44.4°F6.9°C 34.1°F1.2°C 67% 6.0 mph S9.7 kmh S 14.5 mph23.3 kmh 30.09 in1019.0 mb 0.00 in0.0 mm 0.00 in/hr0.0 mm/hr 0.00 in0.0 mm
09:06 AM 45.1°F7.3°C 33.2°F0.7°C 63% 7.4 mph S11.9 kmh S 17.0 mph27.4 kmh 30.09 in1019.0 mb 0.00 in0.0 mm 0.00 in/hr0.0 mm/hr 0.00 in0.0 mm
09:16 AM 45.7°F7.6°C 33.8°F1.0°C 63% 7.2 mph S11.6 kmh S 15.9 mph25.6 kmh 30.10 in1019.3 mb 0.00 in0.0 mm 0.00 in/hr0.0 mm/hr 0.00 in0.0 mm
09:27 AM 46.4°F8.0°C 33.7°F0.9°C 61% 5.9 mph SSE9.5 kmh SSE 15.4 mph24.8 kmh 30.10 in1019.3 mb 0.00 in0.0 mm 0.00 in/hr0.0 mm/hr 0.00 in0.0 mm
09:37 AM 46.8°F8.2°C 33.2°F0.7°C 59% 7.2 mph S11.6 kmh S 14.8 mph23.8 kmh 30.11 in1019.6 mb 0.00 in0.0 mm 0.00 in/hr0.0 mm/hr 0.00 in0.0 mm
09:47 AM 47.5°F8.6°C 33.4°F0.8°C 58% 6.5 mph S10.5 kmh S 13.0 mph20.9 kmh 30.11 in1019.6 mb 0.00 in0.0 mm 0.00 in/hr0.0 mm/hr 0.00 in0.0 mm
09:57 AM 48.2°F9.0°C 33.2°F0.7°C 56% 6.5 mph S10.5 kmh S 15.4 mph24.8 kmh 30.11 in1019.6 mb 0.00 in0.0 mm 0.00 in/hr0.0 mm/hr 0.00 in0.0 mm
10:07 AM 48.6°F9.2°C 32.6°F0.3°C 54% 6.7 mph SSE10.8 kmh SSE 19.5 mph31.4 kmh 30.11 in1019.6 mb 0.00 in0.0 mm 0.00 in/hr0.0 mm/hr 0.00 in0.0 mm
10:17 AM 49.0°F9.4°C 33.1°F0.6°C 54% 8.2 mph SSE13.2 kmh SSE 13.2 mph21.2 kmh 30.11 in1019.6 mb 0.00 in0.0 mm 0.00 in/hr0.0 mm/hr 0.00 in0.0 mm
10:28 AM 49.5°F9.7°C 33.6°F0.9°C 54% 8.7 mph S14.0 kmh S 15.4 mph24.8 kmh 30.11 in1019.6 mb 0.00 in0.0 mm 0.00 in/hr0.0 mm/hr 0.00 in0.0 mm
10:38 AM 50.0°F10.0°C 32.6°F0.3°C 51% 8.0 mph S12.9 kmh S 14.5 mph23.3 kmh 30.11 in1019.6 mb 0.00 in0.0 mm 0.00 in/hr0.0 mm/hr 0.00 in0.0 mm
10:48 AM 50.3°F10.2°C 31.3°F-0.4°C 48% 8.9 mph S14.3 kmh S 16.3 mph26.2 kmh 30.11 in1019.6 mb 0.00 in0.0 mm 0.00 in/hr0.0 mm/hr 0.00 in0.0 mm
10:58 AM 50.4°F10.2°C 30.4°F-0.9°C 46% 12.7 mph S20.4 kmh S 16.8 mph27.0 kmh 30.11 in1019.6 mb 0.00 in0.0 mm 0.00 in/hr0.0 mm/hr 0.00 in0.0 mm
11:08 AM 50.6°F10.3°C 30.5°F-0.8°C 46% 5.6 mph S9.0 kmh S 12.8 mph20.6 kmh 30.11 in1019.6 mb 0.00 in0.0 mm 0.00 in/hr0.0 mm/hr 0.00 in0.0 mm
11:18 AM 51.7°F10.9°C 31.0°F-0.6°C 45% 10.4 mph S16.7 kmh S 13.6 mph21.9 kmh 30.10 in1019.3 mb 0.00 in0.0 mm 0.00 in/hr0.0 mm/hr 0.00 in0.0 mm
11:27 AM 51.5°F10.8°C 30.2°F-1.0°C 44% 10.9 mph S17.5 kmh S 21.3 mph34.3 kmh 30.10 in1019.3 mb 0.00 in0.0 mm 0.00 in/hr0.0 mm/hr 0.00 in0.0 mm
11:37 AM 51.7°F10.9°C 29.9°F-1.2°C 43% 10.0 mph S16.1 kmh S 18.1 mph29.1 kmh 30.09 in1019.0 mb 0.00 in0.0 mm 0.00 in/hr0.0 mm/hr 0.00 in0.0 mm
11:48 AM 52.1°F11.2°C 30.2°F-1.0°C 43% 6.8 mph SE10.9 kmh SE 18.8 mph30.3 kmh 30.09 in1019.0 mb 0.00 in0.0 mm 0.00 in/hr0.0 mm/hr 0.00 in0.0 mm
11:58 AM 55.1°F12.8°C 31.8°F-0.1°C 41% 4.1 mph SE6.6 kmh SE 11.6 mph18.7 kmh 30.09 in1019.0 mb 0.00 in0.0 mm 0.00 in/hr0.0 mm/hr 0.00 in0.0 mm
12:08 PM 56.9°F13.8°C 32.1°F0.1°C 39% 5.0 mph SE8.0 kmh SE 13.6 mph21.9 kmh 30.08 in1018.6 mb 0.00 in0.0 mm 0.00 in/hr0.0 mm/hr 0.00 in0.0 mm
12:18 PM 56.3°F13.5°C 29.0°F-1.7°C 35% 15.2 mph S24.5 kmh S 21.7 mph34.9 kmh 30.09 in1019.0 mb 0.00 in0.0 mm 0.00 in/hr0.0 mm/hr 0.00 in0.0 mm
12:28 PM 55.7°F13.2°C 29.8°F-1.2°C 37% 11.9 mph S19.2 kmh S 18.8 mph30.3 kmh 30.09 in1019.0 mb 0.00 in0.0 mm 0.00 in/hr0.0 mm/hr 0.00 in0.0 mm
12:38 PM 55.4°F13.0°C 30.1°F-1.1°C 38% 8.3 mph SSE13.4 kmh SSE 19.5 mph31.4 kmh 30.08 in1018.6 mb 0.00 in0.0 mm 0.00 in/hr0.0 mm/hr 0.00 in0.0 mm
12:49 PM 55.4°F13.0°C 28.8°F-1.8°C 36% 7.1 mph SSE11.4 kmh SSE 20.6 mph33.2 kmh 30.07 in1018.3 mb 0.00 in0.0 mm 0.00 in/hr0.0 mm/hr 0.00 in0.0 mm
12:59 PM 57.6°F14.2°C 31.5°F-0.3°C 37% 6.0 mph SE9.7 kmh SE 16.1 mph25.9 kmh 30.07 in1018.3 mb 0.00 in0.0 mm 0.00 in/hr0.0 mm/hr 0.00 in0.0 mm
01:09 PM 57.3°F14.1°C 29.8°F-1.2°C 35% 7.9 mph SSE12.7 kmh SSE 22.6 mph36.4 kmh 30.07 in1018.3 mb 0.00 in0.0 mm 0.00 in/hr0.0 mm/hr 0.00 in0.0 mm
01:19 PM 58.7°F14.8°C 31.1°F-0.5°C 35% 8.3 mph SE13.4 kmh SE 16.3 mph26.2 kmh 30.07 in1018.3 mb 0.00 in0.0 mm 0.00 in/hr0.0 mm/hr 0.00 in0.0 mm
01:29 PM 58.8°F14.9°C 30.5°F-0.8°C 34% 13.7 mph S22.0 kmh S 19.0 mph30.6 kmh 30.07 in1018.3 mb 0.00 in0.0 mm 0.00 in/hr0.0 mm/hr 0.00 in0.0 mm
01:39 PM 58.5°F14.7°C 30.9°F-0.6°C 35% 8.3 mph S13.4 kmh S 17.9 mph28.8 kmh 30.06 in1017.9 mb 0.00 in0.0 mm 0.00 in/hr0.0 mm/hr 0.00 in0.0 mm
01:49 PM 59.6°F15.3°C 31.9°F-0.1°C 35% 3.3 mph SSE5.3 kmh SSE 22.1 mph35.6 kmh 30.06 in1017.9 mb 0.00 in0.0 mm 0.00 in/hr0.0 mm/hr 0.00 in0.0 mm
01:59 PM 61.7°F16.5°C 31.6°F-0.2°C 32% 9.4 mph S15.1 kmh S 18.3 mph29.5 kmh 30.06 in1017.9 mb 0.00 in0.0 mm 0.00 in/hr0.0 mm/hr 0.00 in0.0 mm
02:10 PM 61.5°F16.4°C 32.9°F0.5°C 34% 6.0 mph SE9.7 kmh SE 18.1 mph29.1 kmh 30.05 in1017.6 mb 0.00 in0.0 mm 0.00 in/hr0.0 mm/hr 0.00 in0.0 mm
02:20 PM 61.7°F16.5°C 31.6°F-0.2°C 32% 3.1 mph SE5.0 kmh SE 19.7 mph31.7 kmh 30.05 in1017.6 mb 0.00 in0.0 mm 0.00 in/hr0.0 mm/hr 0.00 in0.0 mm
02:30 PM 62.2°F16.8°C 32.8°F0.4°C 33% 3.3 mph SE5.3 kmh SE 17.4 mph28.0 kmh 30.05 in1017.6 mb 0.00 in0.0 mm 0.00 in/hr0.0 mm/hr 0.00 in0.0 mm
02:40 PM 63.7°F17.6°C 33.3°F0.7°C 32% 11.0 mph S17.7 kmh S 14.5 mph23.3 kmh 30.05 in1017.6 mb 0.00 in0.0 mm 0.00 in/hr0.0 mm/hr 0.00 in0.0 mm
02:50 PM 64.0°F17.8°C 34.3°F1.3°C 33% 3.2 mph SSE5.1 kmh SSE 14.3 mph23.0 kmh 30.04 in1017.3 mb 0.00 in0.0 mm 0.00 in/hr0.0 mm/hr 0.00 in0.0 mm
03:00 PM 64.0°F17.8°C 35.1°F1.7°C 34% 5.0 mph SE8.0 kmh SE 19.0 mph30.6 kmh 30.04 in1017.3 mb 0.00 in0.0 mm 0.00 in/hr0.0 mm/hr 0.00 in0.0 mm
03:10 PM 64.2°F17.9°C 34.5°F1.4°C 33% 5.2 mph SSE8.4 kmh SSE 12.1 mph19.5 kmh 30.04 in1017.3 mb 0.00 in0.0 mm 0.00 in/hr0.0 mm/hr 0.00 in0.0 mm
03:20 PM 64.6°F18.1°C 34.9°F1.6°C 33% 8.4 mph SE13.5 kmh SE 12.3 mph19.8 kmh 30.04 in1017.3 mb 0.00 in0.0 mm 0.00 in/hr0.0 mm/hr 0.00 in0.0 mm
03:30 PM 66.0°F18.9°C 36.8°F2.7°C 34% 2.0 mph SE3.2 kmh SE 13.4 mph21.6 kmh 30.03 in1016.9 mb 0.00 in0.0 mm 0.00 in/hr0.0 mm/hr 0.00 in0.0 mm
03:41 PM 66.0°F18.9°C 36.1°F2.3°C 33% 2.3 mph E3.7 kmh E 14.1 mph22.7 kmh 30.03 in1016.9 mb 0.00 in0.0 mm 0.00 in/hr0.0 mm/hr 0.00 in0.0 mm
03:51 PM 64.6°F18.1°C 34.1°F1.2°C 32% 7.8 mph S12.6 kmh S 16.6 mph26.7 kmh 30.04 in1017.3 mb 0.00 in0.0 mm 0.00 in/hr0.0 mm/hr 0.00 in0.0 mm
04:01 PM 61.7°F16.5°C 33.0°F0.6°C 34% 4.5 mph S7.2 kmh S 14.8 mph23.8 kmh 30.04 in1017.3 mb 0.00 in0.0 mm 0.00 in/hr0.0 mm/hr 0.00 in0.0 mm
04:11 PM 60.8°F16.0°C 33.6°F0.9°C 36% 1.6 mph SSE2.6 kmh SSE 7.2 mph11.6 kmh 30.04 in1017.3 mb 0.00 in0.0 mm 0.00 in/hr0.0 mm/hr 0.00 in0.0 mm
04:20 PM 61.0°F16.1°C 33.8°F1.0°C 36% 4.7 mph SSE7.6 kmh SSE 8.3 mph13.4 kmh 30.04 in1017.3 mb 0.00 in0.0 mm 0.00 in/hr0.0 mm/hr 0.00 in0.0 mm
04:30 PM 62.4°F16.9°C 33.7°F0.9°C 34% 9.1 mph S14.6 kmh S 13.2 mph21.2 kmh 30.04 in1017.3 mb 0.00 in0.0 mm 0.00 in/hr0.0 mm/hr 0.00 in0.0 mm
04:40 PM 62.4°F16.9°C 33.7°F0.9°C 34% 7.8 mph S12.6 kmh S 15.0 mph24.1 kmh 30.04 in1017.3 mb 0.00 in0.0 mm 0.00 in/hr0.0 mm/hr 0.00 in0.0 mm
04:50 PM 61.2°F16.2°C 33.3°F0.7°C 35% 6.6 mph S10.6 kmh S 11.4 mph18.3 kmh 30.04 in1017.3 mb 0.00 in0.0 mm 0.00 in/hr0.0 mm/hr 0.00 in0.0 mm
05:00 PM 61.2°F16.2°C 34.0°F1.1°C 36% 5.6 mph S9.0 kmh S 9.8 mph15.8 kmh 30.03 in1016.9 mb 0.00 in0.0 mm 0.00 in/hr0.0 mm/hr 0.00 in0.0 mm
05:11 PM 62.4°F16.9°C 34.4°F1.3°C 35% 6.1 mph SSE9.8 kmh SSE 10.1 mph16.3 kmh 30.04 in1017.3 mb 0.00 in0.0 mm 0.00 in/hr0.0 mm/hr 0.00 in0.0 mm
05:21 PM 62.4°F16.9°C 34.4°F1.3°C 35% 3.7 mph S6.0 kmh S 15.7 mph25.3 kmh 30.04 in1017.3 mb 0.00 in0.0 mm 0.00 in/hr0.0 mm/hr 0.00 in0.0 mm
05:31 PM 62.1°F16.7°C 34.1°F1.2°C 35% 4.7 mph S7.6 kmh S 9.2 mph14.8 kmh 30.03 in1016.9 mb 0.00 in0.0 mm 0.00 in/hr0.0 mm/hr 0.00 in0.0 mm
05:41 PM 61.5°F16.4°C 33.6°F0.9°C 35% 5.2 mph S8.4 kmh S 11.2 mph18.0 kmh 30.03 in1016.9 mb 0.00 in0.0 mm 0.00 in/hr0.0 mm/hr 0.00 in0.0 mm
05:51 PM 61.0°F16.1°C 33.1°F0.6°C 35% 4.6 mph SSW7.4 kmh SSW 8.9 mph14.3 kmh 30.03 in1016.9 mb 0.00 in0.0 mm 0.00 in/hr0.0 mm/hr 0.00 in0.0 mm
06:01 PM 59.7°F15.4°C 33.3°F0.7°C 37% Calm Calm 6.9 mph11.1 kmh 30.03 in1016.9 mb 0.00 in0.0 mm 0.00 in/hr0.0 mm/hr 0.00 in0.0 mm
06:11 PM 58.6°F14.8°C 33.1°F0.6°C 38% 1.5 mph WSW2.4 kmh WSW 2.7 mph4.3 kmh 30.03 in1016.9 mb 0.00 in0.0 mm 0.00 in/hr0.0 mm/hr 0.00 in0.0 mm
06:22 PM 56.6°F13.7°C 32.5°F0.3°C 40% 4.5 mph W7.2 kmh W 6.9 mph11.1 kmh 30.04 in1017.3 mb 0.00 in0.0 mm 0.00 in/hr0.0 mm/hr 0.00 in0.0 mm
06:32 PM 54.8°F12.7°C 32.7°F0.4°C 43% 6.0 mph WNW9.7 kmh WNW 8.1 mph13.0 kmh 30.03 in1016.9 mb 0.00 in0.0 mm 0.00 in/hr0.0 mm/hr 0.00 in0.0 mm
06:42 PM 53.6°F12.0°C 32.2°F0.1°C 44% 6.2 mph WNW10.0 kmh WNW 7.8 mph12.6 kmh 30.04 in1017.3 mb 0.00 in0.0 mm 0.00 in/hr0.0 mm/hr 0.00 in0.0 mm
06:52 PM 52.5°F11.4°C 32.3°F0.2°C 46% 5.1 mph WNW8.2 kmh WNW 7.2 mph11.6 kmh 30.05 in1017.6 mb 0.00 in0.0 mm 0.00 in/hr0.0 mm/hr 0.00 in0.0 mm
07:02 PM 51.8°F11.0°C 32.7°F0.4°C 48% 4.8 mph WNW7.7 kmh WNW 7.4 mph11.9 kmh 30.04 in1017.3 mb 0.00 in0.0 mm 0.00 in/hr0.0 mm/hr 0.00 in0.0 mm
07:12 PM 51.5°F10.8°C 33.0°F0.6°C 49% 5.0 mph WNW8.0 kmh WNW 8.3 mph13.4 kmh 30.05 in1017.6 mb 0.00 in0.0 mm 0.00 in/hr0.0 mm/hr 0.00 in0.0 mm
07:22 PM 51.2°F10.7°C 32.6°F0.3°C 49% 3.3 mph WNW5.3 kmh WNW 6.0 mph9.7 kmh 30.05 in1017.6 mb 0.00 in0.0 mm 0.00 in/hr0.0 mm/hr 0.00 in0.0 mm
07:33 PM 50.7°F10.4°C 32.2°F0.1°C 49% 3.5 mph WNW5.6 kmh WNW 7.4 mph11.9 kmh 30.05 in1017.6 mb 0.00 in0.0 mm 0.00 in/hr0.0 mm/hr 0.00 in0.0 mm
07:43 PM 50.6°F10.3°C 32.6°F0.3°C 50% 1.9 mph WNW3.1 kmh WNW 5.1 mph8.2 kmh 30.06 in1017.9 mb 0.00 in0.0 mm 0.00 in/hr0.0 mm/hr 0.00 in0.0 mm
07:53 PM 50.1°F10.1°C 32.7°F0.4°C 51% 4.3 mph WNW6.9 kmh WNW 6.5 mph10.5 kmh 30.05 in1017.6 mb 0.00 in0.0 mm 0.00 in/hr0.0 mm/hr 0.00 in0.0 mm
08:03 PM 49.8°F9.9°C 32.9°F0.5°C 52% 2.4 mph NW3.9 kmh NW 8.1 mph13.0 kmh 30.05 in1017.6 mb 0.00 in0.0 mm 0.00 in/hr0.0 mm/hr 0.00 in0.0 mm
08:13 PM 49.6°F9.8°C 32.7°F0.4°C 52% 3.2 mph NW5.1 kmh NW 6.0 mph9.7 kmh 30.04 in1017.3 mb 0.00 in0.0 mm 0.00 in/hr0.0 mm/hr 0.00 in0.0 mm
08:23 PM 49.5°F9.7°C 32.5°F0.3°C 52% 5.3 mph NW8.5 kmh NW 7.8 mph12.6 kmh 30.05 in1017.6 mb 0.00 in0.0 mm 0.00 in/hr0.0 mm/hr 0.00 in0.0 mm
08:34 PM 49.4°F9.7°C 33.0°F0.6°C 53% 3.8 mph NW6.1 kmh NW 6.5 mph10.5 kmh 30.05 in1017.6 mb 0.00 in0.0 mm 0.00 in/hr0.0 mm/hr 0.00 in0.0 mm
08:44 PM 49.2°F9.6°C 32.8°F0.4°C 53% 3.5 mph NW5.6 kmh NW 8.9 mph14.3 kmh 30.05 in1017.6 mb 0.00 in0.0 mm 0.00 in/hr0.0 mm/hr 0.00 in0.0 mm
08:54 PM 49.0°F9.4°C 32.6°F0.3°C 53% 1.9 mph NW3.1 kmh NW 8.5 mph13.7 kmh 30.06 in1017.9 mb 0.00 in0.0 mm 0.00 in/hr0.0 mm/hr 0.00 in0.0 mm
09:04 PM 48.8°F9.3°C 32.8°F0.4°C 54% 5.3 mph NW8.5 kmh NW 7.6 mph12.2 kmh 30.06 in1017.9 mb 0.00 in0.0 mm 0.00 in/hr0.0 mm/hr 0.00 in0.0 mm
09:14 PM 48.7°F9.3°C 32.8°F0.4°C 54% 3.9 mph NW6.3 kmh NW 8.3 mph13.4 kmh 30.06 in1017.9 mb 0.00 in0.0 mm 0.00 in/hr0.0 mm/hr 0.00 in0.0 mm
09:23 PM 48.6°F9.2°C 32.7°F0.4°C 54% 3.5 mph NW5.6 kmh NW 10.7 mph17.2 kmh 30.06 in1017.9 mb 0.00 in0.0 mm 0.00 in/hr0.0 mm/hr 0.00 in0.0 mm
09:33 PM 48.4°F9.1°C 32.5°F0.3°C 54% 4.7 mph NNW7.6 kmh NNW 7.4 mph11.9 kmh 30.05 in1017.6 mb 0.00 in0.0 mm 0.00 in/hr0.0 mm/hr 0.00 in0.0 mm
09:43 PM 48.1°F8.9°C 32.7°F0.4°C 55% 4.7 mph NNW7.6 kmh NNW 9.2 mph14.8 kmh 30.05 in1017.6 mb 0.00 in0.0 mm 0.00 in/hr0.0 mm/hr 0.00 in0.0 mm
09:53 PM 48.0°F8.9°C 33.0°F0.6°C 56% 4.8 mph NNW7.7 kmh NNW 8.1 mph13.0 kmh 30.05 in1017.6 mb 0.00 in0.0 mm 0.00 in/hr0.0 mm/hr 0.00 in0.0 mm
10:04 PM 47.3°F8.5°C 32.8°F0.4°C 57% 8.6 mph NW13.8 kmh NW 11.6 mph18.7 kmh 30.05 in1017.6 mb 0.00 in0.0 mm 0.00 in/hr0.0 mm/hr 0.00 in0.0 mm
10:14 PM 47.2°F8.4°C 33.1°F0.6°C 58% 5.8 mph NW9.3 kmh NW 7.6 mph12.2 kmh 30.05 in1017.6 mb 0.00 in0.0 mm 0.00 in/hr0.0 mm/hr 0.00 in0.0 mm
10:24 PM 46.9°F8.3°C 32.9°F0.5°C 58% 4.4 mph NW7.1 kmh NW 7.6 mph12.2 kmh 30.05 in1017.6 mb 0.00 in0.0 mm 0.00 in/hr0.0 mm/hr 0.00 in0.0 mm
10:34 PM 46.6°F8.1°C 33.0°F0.6°C 59% 3.0 mph NW4.8 kmh NW 4.0 mph6.4 kmh 30.04 in1017.3 mb 0.00 in0.0 mm 0.00 in/hr0.0 mm/hr 0.00 in0.0 mm
10:44 PM 47.0°F8.3°C 33.8°F1.0°C 60% 2.2 mph NW3.5 kmh NW 3.6 mph5.8 kmh 30.04 in1017.3 mb 0.00 in0.0 mm 0.00 in/hr0.0 mm/hr 0.00 in0.0 mm
10:54 PM 47.3°F8.5°C 34.5°F1.4°C 61% Calm Calm 7.8 mph12.6 kmh 30.04 in1017.3 mb 0.00 in0.0 mm 0.00 in/hr0.0 mm/hr 0.00 in0.0 mm
11:04 PM 47.7°F8.7°C 34.1°F1.2°C 59% 2.3 mph NW3.7 kmh NW 4.7 mph7.6 kmh 30.04 in1017.3 mb 0.00 in0.0 mm 0.00 in/hr0.0 mm/hr 0.00 in0.0 mm
11:15 PM 47.5°F8.6°C 33.9°F1.1°C 59% Calm Calm 1.8 mph2.9 kmh 30.04 in1017.3 mb 0.00 in0.0 mm 0.00 in/hr0.0 mm/hr 0.00 in0.0 mm
11:25 PM 47.2°F8.4°C 34.0°F1.1°C 60% 2.0 mph NW3.2 kmh NW 4.3 mph6.9 kmh 30.04 in1017.3 mb 0.00 in0.0 mm 0.00 in/hr0.0 mm/hr 0.00 in0.0 mm
11:35 PM 46.9°F8.3°C 33.7°F0.9°C 60% 0.9 mph NW1.4 kmh NW 4.5 mph7.2 kmh 30.03 in1016.9 mb 0.00 in0.0 mm 0.00 in/hr0.0 mm/hr 0.00 in0.0 mm
11:45 PM 46.9°F8.3°C 33.7°F0.9°C 60% 2.4 mph NW3.9 kmh NW 4.7 mph7.6 kmh 30.03 in1016.9 mb 0.00 in0.0 mm 0.00 in/hr0.0 mm/hr 0.00 in0.0 mm
11:55 PM 49.7°F9.8°C 32.8°F0.4°C 52% 9.1 mph NW14.6 kmh NW 20.8 mph33.5 kmh 30.02 in1016.6 mb 0.00 in0.0 mm 0.00 in/hr0.0 mm/hr 0.00 in0.0 mm